createdAt,value
2018-05-11T00:00:03.042Z,101566.16
2018-05-11T00:02:31.372Z,101567.19
2018-05-11T00:04:59.703Z,101562.55
2018-05-11T00:07:28.049Z,101559.77
2018-05-11T00:09:57.167Z,101561.23
2018-05-11T00:12:25.542Z,101564.55
2018-05-11T00:14:53.894Z,101565.30
2018-05-11T00:17:22.957Z,101570.34
2018-05-11T00:19:52.069Z,101570.22
2018-05-11T00:22:21.079Z,101573.86
2018-05-11T00:24:49.396Z,101570.00
2018-05-11T00:27:17.711Z,101581.41
2018-05-11T00:29:46.054Z,101591.67
2018-05-11T00:32:14.363Z,101596.51
2018-05-11T00:34:42.663Z,101596.33
2018-05-11T00:37:13.161Z,101596.81
2018-05-11T00:39:42.248Z,101599.69
2018-05-11T00:42:10.570Z,101606.09
2018-05-11T00:44:39.980Z,101606.59
2018-05-11T00:47:08.292Z,101614.98
2018-05-11T00:49:36.608Z,101622.50
2018-05-11T00:52:04.953Z,101626.81
2018-05-11T00:54:33.281Z,101629.23
2018-05-11T00:57:01.607Z,101626.14
2018-05-11T00:59:29.947Z,101630.18
2018-05-11T01:01:59.044Z,101640.14
2018-05-11T01:04:27.386Z,101637.88
2018-05-11T01:06:56.312Z,101643.06
2018-05-11T01:09:24.717Z,101643.36
2018-05-11T01:11:53.016Z,101642.53
2018-05-11T01:14:22.126Z,101646.24
2018-05-11T01:16:50.471Z,101652.50
2018-05-11T01:19:19.529Z,101649.02
2018-05-11T01:21:47.876Z,101654.26
2018-05-11T01:24:16.194Z,101656.99
2018-05-11T01:26:44.508Z,101664.36
2018-05-11T01:29:13.131Z,101661.88
2018-05-11T01:31:41.427Z,101665.35
2018-05-11T01:34:09.732Z,101657.73
2018-05-11T01:36:38.833Z,101669.27
2018-05-11T01:39:08.113Z,101670.91
2018-05-11T01:41:36.430Z,101673.41
2018-05-11T01:44:04.772Z,101682.38
2018-05-11T01:46:33.099Z,101684.46
2018-05-11T01:49:01.399Z,101679.09
2018-05-11T01:51:30.035Z,101682.17
2018-05-11T01:53:58.368Z,101684.66
2018-05-11T01:56:26.681Z,101687.32
2018-05-11T01:58:55.779Z,101692.72
2018-05-11T02:01:24.837Z,101691.87
2018-05-11T02:03:53.127Z,101698.96
2018-05-11T02:06:21.467Z,101693.74
2018-05-11T02:08:49.832Z,101699.84
2018-05-11T02:11:18.144Z,101702.47
2018-05-11T02:13:46.570Z,101694.12
2018-05-11T02:16:15.647Z,101703.01
2018-05-11T02:18:44.004Z,101705.02
2018-05-11T02:21:12.292Z,101705.78
2018-05-11T02:23:40.588Z,101712.37
2018-05-11T02:26:08.895Z,101705.36
2018-05-11T02:28:37.212Z,101709.70
2018-05-11T02:31:05.527Z,101701.39
2018-05-11T02:33:33.833Z,101708.44
2018-05-11T02:36:02.492Z,101710.81
2018-05-11T02:38:30.832Z,101715.66
2018-05-11T02:40:59.255Z,101718.09
2018-05-11T02:43:28.340Z,101717.05
2018-05-11T02:45:56.639Z,101723.39
2018-05-11T02:48:24.998Z,101732.73
2018-05-11T02:50:54.090Z,101733.95
2018-05-11T02:53:22.403Z,101728.73
2018-05-11T02:55:50.717Z,101740.73
2018-05-11T02:58:19.167Z,101744.58
2018-05-11T03:00:47.496Z,101747.84
2018-05-11T03:03:15.807Z,101743.06
2018-05-11T03:05:44.158Z,101754.56
2018-05-11T03:08:12.463Z,101753.45
2018-05-11T03:10:40.870Z,101751.31
2018-05-11T03:13:09.193Z,101760.78
2018-05-11T03:15:37.497Z,101757.59
2018-05-11T03:18:06.568Z,101759.83
2018-05-11T03:20:35.364Z,101759.98
2018-05-11T03:23:03.680Z,101763.89
2018-05-11T03:25:32.037Z,101765.42
2018-05-11T03:28:01.155Z,101766.78
2018-05-11T03:30:29.468Z,101769.25
2018-05-11T03:32:57.802Z,101764.47
2018-05-11T03:35:26.163Z,101771.16
2018-05-11T03:37:55.266Z,101769.02
2018-05-11T03:40:24.353Z,101774.14
2018-05-11T03:42:53.559Z,101781.82
2018-05-11T03:45:22.631Z,101781.22
2018-05-11T03:47:50.943Z,101784.62
2018-05-11T03:50:19.276Z,101784.18
2018-05-11T03:52:47.592Z,101787.78
2018-05-11T03:55:16.686Z,101786.25
2018-05-11T03:57:45.812Z,101793.42
2018-05-11T04:00:14.146Z,101795.13
2018-05-11T04:03:01.175Z,101805.33
2018-05-11T04:05:47.721Z,101801.12
2018-05-11T04:08:34.707Z,101800.28
2018-05-11T04:11:03.010Z,101802.84
2018-05-11T04:13:31.340Z,101803.02
2018-05-11T04:15:59.697Z,101803.78
2018-05-11T04:18:28.020Z,101814.80
2018-05-11T04:20:56.362Z,101820.01
2018-05-11T04:23:24.967Z,101814.97
2018-05-11T04:25:53.280Z,101821.45
2018-05-11T04:28:21.624Z,101821.45
2018-05-11T04:30:50.762Z,101816.50
2018-05-11T04:33:19.064Z,101814.28
2018-05-11T04:35:47.371Z,101808.48
2018-05-11T04:38:15.724Z,101813.77
2018-05-11T04:40:44.062Z,101817.09
2018-05-11T04:43:12.383Z,101810.25
2018-05-11T04:45:41.308Z,101820.85
2018-05-11T04:48:09.647Z,101812.64
2018-05-11T04:50:37.970Z,101814.32
2018-05-11T04:53:07.079Z,101817.48
2018-05-11T04:55:35.404Z,101819.54
2018-05-11T04:58:03.734Z,101826.73
2018-05-11T05:00:32.097Z,101819.38
2018-05-11T05:03:01.181Z,101825.25
2018-05-11T05:05:30.279Z,101821.25
2018-05-11T05:07:58.731Z,101824.40
2018-05-11T05:10:27.823Z,101821.95
2018-05-11T05:12:56.191Z,101827.23
2018-05-11T05:15:25.304Z,101828.59
2018-05-11T05:17:53.623Z,101827.13
2018-05-11T05:20:22.733Z,101832.34
2018-05-11T05:22:51.088Z,101843.02
2018-05-11T05:25:19.433Z,101845.44
2018-05-11T05:27:47.755Z,101854.48
2018-05-11T05:30:16.681Z,101848.39
2018-05-11T05:32:45.005Z,101843.20
2018-05-11T05:35:13.336Z,101841.62
2018-05-11T05:37:41.690Z,101845.33
2018-05-11T05:40:10.802Z,101843.58
2018-05-11T05:42:39.132Z,101844.67
2018-05-11T05:45:07.484Z,101841.83
2018-05-11T05:47:35.809Z,101849.69
2018-05-11T05:50:04.141Z,101850.81
2018-05-11T05:52:32.707Z,101855.84
2018-05-11T05:55:01.051Z,101861.83
2018-05-11T05:57:30.149Z,101865.89
2018-05-11T05:59:58.634Z,101859.77
2018-05-11T06:02:27.667Z,101864.92
2018-05-11T06:04:56.065Z,101870.30
2018-05-11T06:07:24.475Z,101863.64
2018-05-11T06:09:52.814Z,101863.13
2018-05-11T06:12:21.281Z,101874.34
2018-05-11T06:14:49.820Z,101870.82
2018-05-11T06:17:18.147Z,101869.59
2018-05-11T06:19:46.475Z,101873.67
2018-05-11T06:22:14.843Z,101874.47
2018-05-11T06:24:43.165Z,101881.46
2018-05-11T06:27:11.502Z,101880.91
2018-05-11T06:29:39.853Z,101878.50
2018-05-11T06:32:08.192Z,101875.34
2018-05-11T06:34:37.354Z,101874.88
2018-05-11T06:37:05.690Z,101875.82
2018-05-11T06:39:34.002Z,101870.72
2018-05-11T06:42:02.328Z,101877.52
2018-05-11T06:44:30.691Z,101879.91
2018-05-11T06:46:59.784Z,101879.28
2018-05-11T06:49:28.180Z,101878.92
2018-05-11T06:51:57.275Z,101888.08
2018-05-11T06:54:26.407Z,101873.66
2018-05-11T06:56:54.743Z,101878.20
2018-05-11T06:59:23.703Z,101878.57
2018-05-11T07:01:52.040Z,101883.71
2018-05-11T07:04:20.371Z,101879.84
2018-05-11T07:06:48.719Z,101875.46
2018-05-11T07:09:18.066Z,101882.47
2018-05-11T07:11:46.365Z,101888.09
2018-05-11T07:14:14.725Z,101890.41
2018-05-11T07:16:43.208Z,101890.84
2018-05-11T07:19:11.535Z,101891.95
2018-05-11T07:21:40.930Z,101887.22
2018-05-11T07:24:09.311Z,101886.63
2018-05-11T07:26:37.642Z,101880.42
2018-05-11T07:29:06.744Z,101885.68
2018-05-11T07:31:35.893Z,101885.59
2018-05-11T07:34:04.244Z,101888.72
2018-05-11T07:36:32.628Z,101881.14
2018-05-11T07:39:01.046Z,101883.46
2018-05-11T07:41:29.384Z,101879.15
2018-05-11T07:43:58.351Z,101875.34
2018-05-11T07:46:26.674Z,101881.72
2018-05-11T07:48:55.768Z,101881.98
2018-05-11T07:51:24.136Z,101881.36
2018-05-11T07:53:52.522Z,101872.92
2018-05-11T07:56:20.861Z,101871.13
2018-05-11T07:58:49.974Z,101871.91
2018-05-11T08:01:19.080Z,101870.45
2018-05-11T08:03:47.420Z,101872.52
2018-05-11T08:06:15.934Z,101872.47
2018-05-11T08:08:45.012Z,101867.73
2018-05-11T08:11:13.334Z,101858.33
2018-05-11T08:13:41.682Z,101864.89
2018-05-11T08:16:10.023Z,101868.83
2018-05-11T08:18:38.368Z,101864.05
2018-05-11T08:21:06.724Z,101859.81
2018-05-11T08:23:35.838Z,101858.53
2018-05-11T08:26:04.161Z,101858.00
2018-05-11T08:28:32.571Z,101865.99
2018-05-11T08:31:01.645Z,101862.27
2018-05-11T08:33:29.948Z,101863.25
2018-05-11T08:35:59.122Z,101866.31
2018-05-11T08:38:27.404Z,101860.11
2018-05-11T08:40:55.789Z,101864.29
2018-05-11T08:43:24.919Z,101862.20
2018-05-11T08:45:53.272Z,101863.84
2018-05-11T08:48:21.599Z,101858.38
2018-05-11T08:50:50.219Z,101865.56
2018-05-11T08:53:18.538Z,101864.13
2018-05-11T08:55:46.960Z,101872.31
2018-05-11T08:58:15.261Z,101865.84
2018-05-11T09:00:43.603Z,101860.95
2018-05-11T09:03:11.947Z,101857.98
2018-05-11T09:05:40.297Z,101862.75
2018-05-11T09:08:13.463Z,101862.31
2018-05-11T09:10:42.367Z,101866.77
2018-05-11T09:13:10.674Z,101865.50
2018-05-11T09:15:38.995Z,101866.11
2018-05-11T09:18:07.340Z,101866.46
2018-05-11T09:20:36.423Z,101857.59
2018-05-11T09:23:04.746Z,101855.67
2018-05-11T09:25:33.091Z,101856.55
2018-05-11T09:28:02.175Z,101861.89
2018-05-11T09:30:31.279Z,101864.48
2018-05-11T09:33:00.671Z,101869.44
2018-05-11T09:35:29.072Z,101856.97
2018-05-11T09:37:57.430Z,101867.53
2018-05-11T09:40:26.552Z,101870.33
2018-05-11T09:42:54.913Z,101866.37
2018-05-11T09:45:23.248Z,101861.21
2018-05-11T09:47:51.663Z,101865.97
2018-05-11T09:50:20.009Z,101868.12
2018-05-11T09:52:48.323Z,101865.52
2018-05-11T09:55:17.124Z,101866.75
2018-05-11T09:57:45.460Z,101867.37
2018-05-11T10:00:13.815Z,101869.44
2018-05-11T10:02:42.143Z,101863.82
2018-05-11T10:05:10.483Z,101866.37
2018-05-11T10:07:38.833Z,101874.83
2018-05-11T10:10:07.950Z,101865.42
2018-05-11T10:12:36.275Z,101867.41
2018-05-11T10:15:04.617Z,101874.59
2018-05-11T10:17:33.305Z,101877.28
2018-05-11T10:20:01.630Z,101874.14
2018-05-11T10:22:30.775Z,101866.49
2018-05-11T10:24:59.135Z,101871.69
2018-05-11T10:27:27.490Z,101866.02
2018-05-11T10:29:56.575Z,101864.66
2018-05-11T10:32:24.925Z,101872.91
2018-05-11T10:34:53.291Z,101870.55
2018-05-11T10:37:21.592Z,101867.20
2018-05-11T10:39:50.166Z,101864.18
2018-05-11T10:42:18.515Z,101867.17
2018-05-11T10:44:46.873Z,101865.09
2018-05-11T10:47:16.022Z,101867.47
2018-05-11T10:49:44.498Z,101865.36
2018-05-11T10:52:12.801Z,101856.59
2018-05-11T10:54:41.147Z,101860.34
2018-05-11T10:57:09.479Z,101858.66
2018-05-11T10:59:38.592Z,101861.57
2018-05-11T11:02:07.923Z,101868.86
2018-05-11T11:04:36.267Z,101866.08
2018-05-11T11:07:05.377Z,101867.70
2018-05-11T11:09:33.779Z,101866.61
2018-05-11T11:12:02.132Z,101867.33
2018-05-11T11:14:30.476Z,101862.02
2018-05-11T11:16:58.843Z,101858.80
2018-05-11T11:19:27.198Z,101867.04
2018-05-11T11:21:55.562Z,101865.95
2018-05-11T11:24:24.286Z,101861.72
2018-05-11T11:26:52.626Z,101854.73
2018-05-11T11:29:20.966Z,101857.02
2018-05-11T11:31:50.156Z,101852.87
2018-05-11T11:34:19.284Z,101860.34
2018-05-11T11:36:47.645Z,101852.64
2018-05-11T11:39:15.968Z,101852.82
2018-05-11T11:41:45.212Z,101854.28
2018-05-11T11:44:13.492Z,101856.52
2018-05-11T11:46:42.230Z,101856.16
2018-05-11T11:49:10.651Z,101852.02
2018-05-11T11:51:39.062Z,101845.77
2018-05-11T11:54:08.189Z,101843.94
2018-05-11T11:56:36.534Z,101845.02
2018-05-11T11:59:05.624Z,101832.28
2018-05-11T12:01:35.168Z,101834.45
2018-05-11T12:04:03.472Z,101832.47
2018-05-11T12:06:31.794Z,101828.14
2018-05-11T12:09:01.161Z,101826.94
2018-05-11T12:11:29.475Z,101825.39
2018-05-11T12:13:57.815Z,101819.49
2018-05-11T12:16:26.157Z,101819.98
2018-05-11T12:18:54.475Z,101820.47
2018-05-11T12:21:22.786Z,101814.52
2018-05-11T12:23:51.884Z,101811.86
2018-05-11T12:26:20.945Z,101812.18
2018-05-11T12:28:49.288Z,101807.83
2018-05-11T12:31:17.934Z,101805.45
2018-05-11T12:33:47.023Z,101811.00
2018-05-11T12:36:15.378Z,101811.30
2018-05-11T12:38:43.739Z,101810.05
2018-05-11T12:41:12.131Z,101811.45
2018-05-11T12:43:40.486Z,101812.33
2018-05-11T12:46:08.869Z,101804.72
2018-05-11T12:48:37.225Z,101797.93
2018-05-11T12:51:05.576Z,101800.67
2018-05-11T12:53:34.213Z,101805.27
2018-05-11T12:56:02.620Z,101810.05
2018-05-11T12:58:30.967Z,101799.98
2018-05-11T13:00:59.356Z,101795.30
2018-05-11T13:03:27.724Z,101800.98
2018-05-11T13:05:56.072Z,101792.77
2018-05-11T13:08:25.195Z,101794.06
2018-05-11T13:10:53.795Z,101788.45
2018-05-11T13:13:22.195Z,101788.00
2018-05-11T13:15:50.932Z,101789.30
2018-05-11T13:18:19.285Z,101788.15
2018-05-11T13:20:47.661Z,101788.42
2018-05-11T13:23:16.037Z,101792.28
2018-05-11T13:25:44.400Z,101791.87
2018-05-11T13:28:12.744Z,101788.08
2018-05-11T13:30:41.186Z,101790.70
2018-05-11T13:33:09.464Z,101789.93
2018-05-11T13:35:38.620Z,101788.41
2018-05-11T13:38:07.278Z,101785.75
2018-05-11T13:40:35.654Z,101783.58
2018-05-11T13:43:04.019Z,101775.02
2018-05-11T13:45:32.396Z,101776.95
2018-05-11T13:48:01.515Z,101766.99
2018-05-11T13:50:29.837Z,101766.74
2018-05-11T13:52:58.172Z,101764.57
2018-05-11T13:55:26.528Z,101763.87
2018-05-11T13:57:55.643Z,101764.81
2018-05-11T14:00:24.078Z,101752.82
2018-05-11T14:02:53.352Z,101761.98
2018-05-11T14:05:21.720Z,101754.73
2018-05-11T14:07:50.074Z,101747.98
2018-05-11T14:10:18.784Z,101759.23
2018-05-11T14:12:47.050Z,101752.77
2018-05-11T14:15:15.427Z,101753.73
2018-05-11T14:17:43.844Z,101745.16
2018-05-11T14:20:12.167Z,101745.81
2018-05-11T14:22:41.543Z,101739.94
2018-05-11T14:25:09.861Z,101742.55
2018-05-11T14:27:38.944Z,101742.47
2018-05-11T14:30:07.315Z,101744.53
2018-05-11T14:32:36.421Z,101746.77
2018-05-11T14:35:05.512Z,101744.08
2018-05-11T14:37:34.651Z,101740.34
2018-05-11T14:40:03.043Z,101745.87
2018-05-11T14:42:31.380Z,101744.90
2018-05-11T14:45:00.755Z,101735.80
2018-05-11T14:47:29.129Z,101744.84
2018-05-11T14:49:57.480Z,101731.91
2018-05-11T14:52:25.883Z,101730.85
2018-05-11T14:54:54.207Z,101726.28
2018-05-11T14:57:22.585Z,101722.31
2018-05-11T14:59:50.968Z,101724.28
2018-05-11T15:02:19.298Z,101729.38
2018-05-11T15:04:47.651Z,101723.34
2018-05-11T15:07:16.260Z,101719.47
2018-05-11T15:09:44.577Z,101727.53
2018-05-11T15:12:12.964Z,101730.83
2018-05-11T15:14:41.345Z,101729.77
2018-05-11T15:17:09.676Z,101728.20
2018-05-11T15:19:38.045Z,101722.17
2018-05-11T15:22:06.424Z,101714.91
2018-05-11T15:24:34.764Z,101714.91
2018-05-11T15:27:03.123Z,101713.86
2018-05-11T15:29:31.800Z,101711.25
2018-05-11T15:32:00.138Z,101710.94
2018-05-11T15:34:28.483Z,101710.78
2018-05-11T15:36:57.620Z,101704.78
2018-05-11T15:39:25.932Z,101702.77
2018-05-11T15:41:54.270Z,101703.19
2018-05-11T15:44:22.642Z,101699.91
2018-05-11T15:46:50.969Z,101704.44
2018-05-11T15:49:20.090Z,101706.11
2018-05-11T15:51:48.959Z,101698.71
2018-05-11T15:54:18.108Z,101692.61
2018-05-11T15:56:46.448Z,101691.29
2018-05-11T15:59:15.559Z,101690.20
2018-05-11T16:01:43.907Z,101694.28
2018-05-11T16:04:12.232Z,101690.67
2018-05-11T16:06:40.575Z,101694.03
2018-05-11T16:09:09.667Z,101685.23
2018-05-11T16:11:38.770Z,101681.68
2018-05-11T16:14:08.066Z,101681.12
2018-05-11T16:16:37.171Z,101684.59
2018-05-11T16:19:06.326Z,101680.84
2018-05-11T16:21:34.733Z,101675.45
2018-05-11T16:24:03.057Z,101680.84
2018-05-11T16:26:31.397Z,101681.16
2018-05-11T16:28:59.740Z,101680.97
2018-05-11T16:31:28.042Z,101673.94
2018-05-11T16:33:56.404Z,101677.84
2018-05-11T16:36:25.145Z,101666.41
2018-05-11T16:38:53.491Z,101671.00
2018-05-11T16:41:21.823Z,101673.77
2018-05-11T16:43:50.196Z,101667.32
2018-05-11T16:46:18.580Z,101674.17
2018-05-11T16:48:46.987Z,101669.59
2018-05-11T16:51:15.383Z,101661.67
2018-05-11T16:53:43.684Z,101662.17
2018-05-11T16:56:12.770Z,101661.63
2018-05-11T16:58:42.133Z,101664.78
2018-05-11T17:01:10.469Z,101662.86
2018-05-11T17:03:39.533Z,101656.92
2018-05-11T17:06:07.883Z,101652.30
2018-05-11T17:08:36.207Z,101654.22
2018-05-11T17:11:04.549Z,101657.88
2018-05-11T17:13:32.900Z,101655.72
2018-05-11T17:16:01.259Z,101657.87
2018-05-11T17:18:29.587Z,101658.29
2018-05-11T17:20:58.196Z,101657.98
2018-05-11T17:23:26.492Z,101659.61
2018-05-11T17:25:55.621Z,101666.36
2018-05-11T17:28:24.255Z,101659.63
2018-05-11T17:30:52.649Z,101661.77
2018-05-11T17:33:21.748Z,101657.98
2018-05-11T17:35:50.920Z,101666.63
2018-05-11T17:38:19.242Z,101656.72
2018-05-11T17:40:47.575Z,101657.53
2018-05-11T17:43:16.123Z,101660.25
2018-05-11T17:45:44.442Z,101659.15
2018-05-11T17:48:12.783Z,101658.16
2018-05-11T17:50:41.184Z,101654.92
2018-05-11T17:53:09.522Z,101660.56
2018-05-11T17:55:37.860Z,101662.88
2018-05-11T17:58:06.248Z,101664.55
2018-05-11T18:00:34.573Z,101667.20
2018-05-11T18:03:03.022Z,101663.26
2018-05-11T18:05:31.715Z,101663.26
2018-05-11T18:08:00.060Z,101666.89
2018-05-11T18:10:28.408Z,101666.91
2018-05-11T18:12:56.826Z,101660.56
2018-05-11T18:15:25.151Z,101665.35
2018-05-11T18:17:53.480Z,101662.55
2018-05-11T18:20:21.845Z,101659.84
2018-05-11T18:22:50.168Z,101661.77
2018-05-11T18:25:18.511Z,101664.72
2018-05-11T18:27:46.967Z,101666.52
2018-05-11T18:30:15.347Z,101668.33
2018-05-11T18:32:43.683Z,101670.13
2018-05-11T18:35:12.060Z,101665.48
2018-05-11T18:37:40.405Z,101665.50
2018-05-11T18:40:08.946Z,101664.77
2018-05-11T18:42:37.397Z,101661.22
2018-05-11T18:45:06.505Z,101667.92
2018-05-11T18:47:35.613Z,101671.66
2018-05-11T18:50:04.092Z,101671.70
2018-05-11T18:52:32.478Z,101672.52
2018-05-11T18:55:00.844Z,101672.33
2018-05-11T18:57:29.971Z,101671.23
2018-05-11T18:59:58.289Z,101663.67
2018-05-11T19:02:26.622Z,101673.02
2018-05-11T19:04:54.979Z,101677.80
2018-05-11T19:07:24.076Z,101684.78
2018-05-11T19:09:52.524Z,101679.41
2018-05-11T19:12:21.223Z,101686.30
2018-05-11T19:14:50.322Z,101691.27
2018-05-11T19:17:19.445Z,101694.58
2018-05-11T19:19:47.799Z,101700.42
2018-05-11T19:22:16.138Z,101698.95
2018-05-11T19:24:44.451Z,101702.23
2018-05-11T19:27:12.808Z,101700.25
2018-05-11T19:29:41.150Z,101705.56
2018-05-11T19:32:09.508Z,101704.17
2018-05-11T19:34:38.734Z,101704.83
2018-05-11T19:37:07.061Z,101705.88
2018-05-11T19:39:35.429Z,101711.49
2018-05-11T19:42:03.763Z,101709.80
2018-05-11T19:44:32.149Z,101717.86
2018-05-11T19:47:00.508Z,101710.22
2018-05-11T19:49:28.851Z,101708.95
2018-05-11T19:51:57.179Z,101713.61
2018-05-11T19:54:25.509Z,101713.70
2018-05-11T19:56:54.046Z,101715.67
2018-05-11T19:59:22.388Z,101714.30
2018-05-11T20:01:51.554Z,101720.34
2018-05-11T20:04:19.938Z,101717.08
2018-05-11T20:06:48.283Z,101723.48
2018-05-11T20:09:16.621Z,101734.81
2018-05-11T20:11:44.984Z,101727.09
2018-05-11T20:14:14.156Z,101722.20
2018-05-11T20:16:42.509Z,101720.05
2018-05-11T20:19:11.249Z,101720.83
2018-05-11T20:21:40.372Z,101727.77
2018-05-11T20:24:09.521Z,101731.72
2018-05-11T20:26:38.044Z,101724.81
2018-05-11T20:29:06.424Z,101730.33
2018-05-11T20:31:35.682Z,101734.84
2018-05-11T20:34:04.067Z,101736.39
2018-05-11T20:36:32.432Z,101737.16
2018-05-11T20:39:00.795Z,101735.06
2018-05-11T20:41:29.244Z,101741.75
2018-05-11T20:43:58.385Z,101733.80
2018-05-11T20:46:26.732Z,101744.12
2018-05-11T20:48:55.201Z,101736.15
2018-05-11T20:51:23.463Z,101741.59
2018-05-11T20:53:51.790Z,101751.99
2018-05-11T20:56:20.136Z,101743.33
2018-05-11T20:58:49.239Z,101742.17
2018-05-11T21:01:18.319Z,101737.84
2018-05-11T21:03:47.137Z,101743.25
2018-05-11T21:06:15.491Z,101739.98
2018-05-11T21:08:44.647Z,101744.88
2018-05-11T21:11:13.048Z,101741.00
2018-05-11T21:13:41.425Z,101742.97
2018-05-11T21:16:09.759Z,101744.16
2018-05-11T21:18:38.146Z,101740.22
2018-05-11T21:21:06.571Z,101737.67
2018-05-11T21:23:34.907Z,101741.00
2018-05-11T21:26:03.510Z,101745.45
2018-05-11T21:28:31.834Z,101744.97
2018-05-11T21:31:00.923Z,101748.36
2018-05-11T21:33:29.387Z,101750.27
2018-05-11T21:35:57.718Z,101752.39
2018-05-11T21:38:26.037Z,101758.34
2018-05-11T21:40:54.392Z,101750.70
2018-05-11T21:43:22.761Z,101757.52
2018-05-11T21:45:51.073Z,101756.02
2018-05-11T21:48:19.492Z,101756.61
2018-05-11T21:50:48.572Z,101756.73
2018-05-11T21:53:16.908Z,101753.16
2018-05-11T21:55:45.262Z,101754.83
2018-05-11T21:58:13.575Z,101751.66
2018-05-11T22:00:41.936Z,101750.78
2018-05-11T22:03:10.301Z,101751.31
2018-05-11T22:05:38.603Z,101746.23
2018-05-11T22:08:06.962Z,101744.56
2018-05-11T22:10:35.586Z,101737.86
2018-05-11T22:13:03.962Z,101737.38
2018-05-11T22:15:32.290Z,101742.32
2018-05-11T22:18:01.412Z,101743.09
2018-05-11T22:20:29.703Z,101739.77
2018-05-11T22:22:58.003Z,101740.20
2018-05-11T22:25:26.351Z,101751.44
2018-05-11T22:27:54.690Z,101741.77
2018-05-11T22:30:23.015Z,101746.21
2018-05-11T22:32:51.833Z,101746.34
2018-05-11T22:35:20.154Z,101742.55
2018-05-11T22:37:48.472Z,101744.07
2018-05-11T22:40:16.823Z,101741.65
2018-05-11T22:42:45.153Z,101744.36
2018-05-11T22:45:13.474Z,101746.34
2018-05-11T22:47:41.836Z,101746.08
2018-05-11T22:50:10.168Z,101742.55
2018-05-11T22:52:39.246Z,101743.69
2018-05-11T22:55:07.864Z,101735.52
2018-05-11T22:57:36.191Z,101738.09
2018-05-11T23:00:04.502Z,101734.02
2018-05-11T23:02:32.847Z,101739.75
2018-05-11T23:05:01.173Z,101735.28
2018-05-11T23:07:29.493Z,101737.94
2018-05-11T23:09:58.646Z,101734.40
2018-05-11T23:12:26.955Z,101733.05
2018-05-11T23:14:55.275Z,101733.97
2018-05-11T23:17:23.656Z,101730.71
2018-05-11T23:19:51.965Z,101737.64
2018-05-11T23:22:20.279Z,101734.84
2018-05-11T23:24:49.405Z,101729.13
2018-05-11T23:27:17.755Z,101729.80
2018-05-11T23:29:46.841Z,101724.63
2018-05-11T23:32:15.968Z,101726.56
2018-05-11T23:34:44.290Z,101721.43
2018-05-11T23:37:12.628Z,101729.34
2018-05-11T23:39:41.218Z,101725.80
2018-05-11T23:42:10.347Z,101715.39
2018-05-11T23:44:38.914Z,101716.22
2018-05-11T23:47:07.282Z,101719.94
2018-05-11T23:49:35.611Z,101711.75
2018-05-11T23:52:03.943Z,101713.47
2018-05-11T23:54:32.278Z,101709.76
2018-05-11T23:57:01.389Z,101702.16
2018-05-11T23:59:29.770Z,101704.95
